sensor_id;sensor_type;location;lat;lon;timestamp;temperature;humidity
58554;DHT22;48119;53.218;6.576;2023-06-10T00:01:46;20.40;91.60
58554;DHT22;48119;53.218;6.576;2023-06-10T00:04:15;20.40;91.80
58554;DHT22;48119;53.218;6.576;2023-06-10T00:06:44;20.40;91.80
58554;DHT22;48119;53.218;6.576;2023-06-10T00:09:10;20.30;91.80
58554;DHT22;48119;53.218;6.576;2023-06-10T00:11:37;20.30;91.90
58554;DHT22;48119;53.218;6.576;2023-06-10T00:14:03;20.30;91.90
58554;DHT22;48119;53.218;6.576;2023-06-10T00:16:29;20.20;91.90
58554;DHT22;48119;53.218;6.576;2023-06-10T00:18:54;20.20;91.90
58554;DHT22;48119;53.218;6.576;2023-06-10T00:21:31;20.20;92.00
58554;DHT22;48119;53.218;6.576;2023-06-10T00:24:04;20.20;92.00
58554;DHT22;48119;53.218;6.576;2023-06-10T00:26:31;20.20;92.00
58554;DHT22;48119;53.218;6.576;2023-06-10T00:28:57;20.20;92.10
58554;DHT22;48119;53.218;6.576;2023-06-10T00:31:23;20.10;92.00
58554;DHT22;48119;53.218;6.576;2023-06-10T00:33:49;20.10;92.00
58554;DHT22;48119;53.218;6.576;2023-06-10T00:36:14;20.10;91.90
58554;DHT22;48119;53.218;6.576;2023-06-10T00:38:40;20.10;92.00
58554;DHT22;48119;53.218;6.576;2023-06-10T00:41:07;20.00;92.00
58554;DHT22;48119;53.218;6.576;2023-06-10T00:43:33;20.00;92.10
58554;DHT22;48119;53.218;6.576;2023-06-10T00:45:59;20.00;92.10
58554;DHT22;48119;53.218;6.576;2023-06-10T00:48:25;20.00;92.10
58554;DHT22;48119;53.218;6.576;2023-06-10T00:50:52;20.00;92.20
58554;DHT22;48119;53.218;6.576;2023-06-10T00:53:18;20.00;92.20
58554;DHT22;48119;53.218;6.576;2023-06-10T00:55:44;19.90;92.60
58554;DHT22;48119;53.218;6.576;2023-06-10T00:58:10;19.90;92.40
58554;DHT22;48119;53.218;6.576;2023-06-10T01:00:36;19.80;92.40
58554;DHT22;48119;53.218;6.576;2023-06-10T01:03:03;19.80;92.50
58554;DHT22;48119;53.218;6.576;2023-06-10T01:05:36;19.80;92.60
58554;DHT22;48119;53.218;6.576;2023-06-10T01:10:56;19.70;92.60
58554;DHT22;48119;53.218;6.576;2023-06-10T01:13:25;19.70;92.70
58554;DHT22;48119;53.218;6.576;2023-06-10T01:15:54;19.70;92.80
58554;DHT22;48119;53.218;6.576;2023-06-10T01:18:21;19.60;92.80
58554;DHT22;48119;53.218;6.576;2023-06-10T01:20:47;19.60;92.80
58554;DHT22;48119;53.218;6.576;2023-06-10T01:23:14;19.60;92.80
58554;DHT22;48119;53.218;6.576;2023-06-10T01:25:54;19.60;92.70
58554;DHT22;48119;53.218;6.576;2023-06-10T01:28:29;19.50;92.70
58554;DHT22;48119;53.218;6.576;2023-06-10T01:31:49;19.50;92.70
58554;DHT22;48119;53.218;6.576;2023-06-10T01:34:11;19.60;92.70
58554;DHT22;48119;53.218;6.576;2023-06-10T01:36:38;19.50;92.70
58554;DHT22;48119;53.218;6.576;2023-06-10T01:39:07;19.50;92.60
58554;DHT22;48119;53.218;6.576;2023-06-10T01:41:35;19.50;92.60
58554;DHT22;48119;53.218;6.576;2023-06-10T01:44:04;19.50;92.70
58554;DHT22;48119;53.218;6.576;2023-06-10T01:46:30;19.50;92.70
58554;DHT22;48119;53.218;6.576;2023-06-10T01:48:56;19.40;92.70
58554;DHT22;48119;53.218;6.576;2023-06-10T01:51:22;19.40;92.80
58554;DHT22;48119;53.218;6.576;2023-06-10T01:53:48;19.30;92.70
58554;DHT22;48119;53.218;6.576;2023-06-10T01:56:13;19.30;92.70
58554;DHT22;48119;53.218;6.576;2023-06-10T01:58:45;19.30;92.70
58554;DHT22;48119;53.218;6.576;2023-06-10T02:01:11;19.30;92.70
58554;DHT22;48119;53.218;6.576;2023-06-10T02:03:37;19.20;92.70
58554;DHT22;48119;53.218;6.576;2023-06-10T02:06:03;19.20;92.70
58554;DHT22;48119;53.218;6.576;2023-06-10T02:08:28;19.20;92.70
58554;DHT22;48119;53.218;6.576;2023-06-10T02:10:54;19.20;92.70
58554;DHT22;48119;53.218;6.576;2023-06-10T02:13:20;19.20;92.70
58554;DHT22;48119;53.218;6.576;2023-06-10T02:15:46;19.10;92.70
58554;DHT22;48119;53.218;6.576;2023-06-10T02:18:11;19.10;92.70
58554;DHT22;48119;53.218;6.576;2023-06-10T02:20:38;19.10;92.80
58554;DHT22;48119;53.218;6.576;2023-06-10T02:23:04;19.00;92.90
58554;DHT22;48119;53.218;6.576;2023-06-10T02:25:30;19.00;93.00
58554;DHT22;48119;53.218;6.576;2023-06-10T02:27:55;19.00;93.10
58554;DHT22;48119;53.218;6.576;2023-06-10T02:30:21;19.00;93.20
58554;DHT22;48119;53.218;6.576;2023-06-10T02:32:47;19.00;93.30
58554;DHT22;48119;53.218;6.576;2023-06-10T02:35:17;18.90;93.50
58554;DHT22;48119;53.218;6.576;2023-06-10T02:37:43;19.00;93.60
58554;DHT22;48119;53.218;6.576;2023-06-10T02:40:10;19.00;93.70
58554;DHT22;48119;53.218;6.576;2023-06-10T02:42:36;18.90;93.80
58554;DHT22;48119;53.218;6.576;2023-06-10T02:45:02;18.90;94.00
58554;DHT22;48119;53.218;6.576;2023-06-10T02:47:28;18.90;94.10
58554;DHT22;48119;53.218;6.576;2023-06-10T02:49:54;18.90;94.30
58554;DHT22;48119;53.218;6.576;2023-06-10T02:52:20;18.90;94.40
58554;DHT22;48119;53.218;6.576;2023-06-10T02:54:46;18.80;94.50
58554;DHT22;48119;53.218;6.576;2023-06-10T02:57:12;18.80;94.70
58554;DHT22;48119;53.218;6.576;2023-06-10T02:59:40;18.80;94.90
58554;DHT22;48119;53.218;6.576;2023-06-10T03:02:06;18.80;95.00
58554;DHT22;48119;53.218;6.576;2023-06-10T03:04:33;18.80;95.10
58554;DHT22;48119;53.218;6.576;2023-06-10T03:06:59;18.80;95.20
58554;DHT22;48119;53.218;6.576;2023-06-10T03:09:29;18.80;95.30
58554;DHT22;48119;53.218;6.576;2023-06-10T03:11:55;18.80;95.40
58554;DHT22;48119;53.218;6.576;2023-06-10T03:14:21;18.70;95.60
58554;DHT22;48119;53.218;6.576;2023-06-10T03:16:46;18.70;95.70
58554;DHT22;48119;53.218;6.576;2023-06-10T03:19:12;18.70;95.80
58554;DHT22;48119;53.218;6.576;2023-06-10T03:21:38;18.70;95.90
58554;DHT22;48119;53.218;6.576;2023-06-10T03:24:05;18.70;96.00
58554;DHT22;48119;53.218;6.576;2023-06-10T03:26:31;18.60;96.10
58554;DHT22;48119;53.218;6.576;2023-06-10T03:28:57;18.60;96.30
58554;DHT22;48119;53.218;6.576;2023-06-10T03:31:23;18.60;96.40
58554;DHT22;48119;53.218;6.576;2023-06-10T03:33:50;18.60;96.50
58554;DHT22;48119;53.218;6.576;2023-06-10T03:36:16;18.60;96.60
58554;DHT22;48119;53.218;6.576;2023-06-10T03:38:42;18.60;96.70
58554;DHT22;48119;53.218;6.576;2023-06-10T03:41:07;18.50;96.80
58554;DHT22;48119;53.218;6.576;2023-06-10T03:43:33;18.60;97.00
58554;DHT22;48119;53.218;6.576;2023-06-10T03:45:59;18.50;97.10
58554;DHT22;48119;53.218;6.576;2023-06-10T03:48:25;18.50;97.30
58554;DHT22;48119;53.218;6.576;2023-06-10T03:50:51;18.50;97.40
58554;DHT22;48119;53.218;6.576;2023-06-10T03:53:17;18.50;97.50
58554;DHT22;48119;53.218;6.576;2023-06-10T03:55:44;18.40;97.70
58554;DHT22;48119;53.218;6.576;2023-06-10T03:58:10;18.40;97.90
58554;DHT22;48119;53.218;6.576;2023-06-10T04:00:38;18.40;98.10
58554;DHT22;48119;53.218;6.576;2023-06-10T04:03:10;18.30;98.30
58554;DHT22;48119;53.218;6.576;2023-06-10T04:05:40;18.30;98.50
58554;DHT22;48119;53.218;6.576;2023-06-10T04:08:07;18.30;98.60
58554;DHT22;48119;53.218;6.576;2023-06-10T04:10:33;18.30;98.70
58554;DHT22;48119;53.218;6.576;2023-06-10T04:12:59;18.30;98.80
58554;DHT22;48119;53.218;6.576;2023-06-10T04:15:28;18.30;98.90
58554;DHT22;48119;53.218;6.576;2023-06-10T04:17:57;18.30;99.10
58554;DHT22;48119;53.218;6.576;2023-06-10T04:20:25;18.30;99.20
58554;DHT22;48119;53.218;6.576;2023-06-10T04:22:55;18.30;99.40
58554;DHT22;48119;53.218;6.576;2023-06-10T04:25:21;18.30;99.50
58554;DHT22;48119;53.218;6.576;2023-06-10T04:27:50;18.20;99.60
58554;DHT22;48119;53.218;6.576;2023-06-10T04:30:16;18.20;99.70
58554;DHT22;48119;53.218;6.576;2023-06-10T04:32:42;18.30;99.80
58554;DHT22;48119;53.218;6.576;2023-06-10T04:35:11;18.30;99.80
58554;DHT22;48119;53.218;6.576;2023-06-10T04:37:38;18.30;99.90
58554;DHT22;48119;53.218;6.576;2023-06-10T04:40:05;18.20;99.90
58554;DHT22;48119;53.218;6.576;2023-06-10T04:42:31;18.20;99.90
58554;DHT22;48119;53.218;6.576;2023-06-10T04:44:56;18.20;99.90
58554;DHT22;48119;53.218;6.576;2023-06-10T04:47:23;18.20;99.90
58554;DHT22;48119;53.218;6.576;2023-06-10T04:49:48;18.20;99.90
58554;DHT22;48119;53.218;6.576;2023-06-10T04:52:14;18.20;99.90
58554;DHT22;48119;53.218;6.576;2023-06-10T04:54:40;18.20;99.90
58554;DHT22;48119;53.218;6.576;2023-06-10T04:57:07;18.20;99.90
58554;DHT22;48119;53.218;6.576;2023-06-10T04:59:33;18.20;99.90
58554;DHT22;48119;53.218;6.576;2023-06-10T05:02:03;18.20;99.90
58554;DHT22;48119;53.218;6.576;2023-06-10T05:04:29;18.20;99.90
58554;DHT22;48119;53.218;6.576;2023-06-10T05:06:55;18.30;99.90
58554;DHT22;48119;53.218;6.576;2023-06-10T05:09:21;18.20;99.90
58554;DHT22;48119;53.218;6.576;2023-06-10T05:11:47;18.20;99.90
58554;DHT22;48119;53.218;6.576;2023-06-10T05:14:12;18.30;99.90
58554;DHT22;48119;53.218;6.576;2023-06-10T05:16:38;18.30;99.90
58554;DHT22;48119;53.218;6.576;2023-06-10T05:19:04;18.30;99.90
58554;DHT22;48119;53.218;6.576;2023-06-10T05:21:30;18.30;99.90
58554;DHT22;48119;53.218;6.576;2023-06-10T05:23:56;18.30;99.90
58554;DHT22;48119;53.218;6.576;2023-06-10T05:26:22;18.20;99.90
58554;DHT22;48119;53.218;6.576;2023-06-10T05:28:48;18.30;99.90
58554;DHT22;48119;53.218;6.576;2023-06-10T05:31:14;18.30;99.90
58554;DHT22;48119;53.218;6.576;2023-06-10T05:33:41;18.40;99.90
58554;DHT22;48119;53.218;6.576;2023-06-10T05:36:07;18.40;99.90
58554;DHT22;48119;53.218;6.576;2023-06-10T05:38:32;18.30;99.90
58554;DHT22;48119;53.218;6.576;2023-06-10T05:40:58;18.30;99.90
58554;DHT22;48119;53.218;6.576;2023-06-10T05:43:24;18.30;99.90
58554;DHT22;48119;53.218;6.576;2023-06-10T05:45:50;18.40;99.90
58554;DHT22;48119;53.218;6.576;2023-06-10T05:48:16;18.40;99.90
58554;DHT22;48119;53.218;6.576;2023-06-10T05:50:42;18.40;99.90
58554;DHT22;48119;53.218;6.576;2023-06-10T05:53:16;18.50;99.90
58554;DHT22;48119;53.218;6.576;2023-06-10T05:55:46;18.50;99.90
58554;DHT22;48119;53.218;6.576;2023-06-10T05:58:13;18.50;99.90
58554;DHT22;48119;53.218;6.576;2023-06-10T06:00:39;18.60;99.90
58554;DHT22;48119;53.218;6.576;2023-06-10T06:03:09;18.60;99.90
58554;DHT22;48119;53.218;6.576;2023-06-10T06:05:36;18.60;99.90
58554;DHT22;48119;53.218;6.576;2023-06-10T06:08:07;18.70;99.90
58554;DHT22;48119;53.218;6.576;2023-06-10T06:10:34;18.60;99.90
58554;DHT22;48119;53.218;6.576;2023-06-10T06:13:00;18.60;99.90
58554;DHT22;48119;53.218;6.576;2023-06-10T06:15:26;18.60;99.90
58554;DHT22;48119;53.218;6.576;2023-06-10T06:17:52;18.60;99.90
58554;DHT22;48119;53.218;6.576;2023-06-10T06:20:19;18.60;99.90
58554;DHT22;48119;53.218;6.576;2023-06-10T06:22:45;18.70;99.90
58554;DHT22;48119;53.218;6.576;2023-06-10T06:25:11;18.70;99.90
58554;DHT22;48119;53.218;6.576;2023-06-10T06:27:37;18.70;99.70
58554;DHT22;48119;53.218;6.576;2023-06-10T06:30:03;18.80;99.70
58554;DHT22;48119;53.218;6.576;2023-06-10T06:32:29;18.80;99.70
58554;DHT22;48119;53.218;6.576;2023-06-10T06:34:55;18.80;99.70
58554;DHT22;48119;53.218;6.576;2023-06-10T06:37:25;18.90;99.60
58554;DHT22;48119;53.218;6.576;2023-06-10T06:39:51;18.90;99.40
58554;DHT22;48119;53.218;6.576;2023-06-10T06:42:17;18.90;99.30
58554;DHT22;48119;53.218;6.576;2023-06-10T06:44:44;18.90;99.30
58554;DHT22;48119;53.218;6.576;2023-06-10T06:47:10;18.90;99.30
58554;DHT22;48119;53.218;6.576;2023-06-10T06:49:37;18.90;99.40
58554;DHT22;48119;53.218;6.576;2023-06-10T06:52:06;18.90;99.40
58554;DHT22;48119;53.218;6.576;2023-06-10T06:54:49;19.00;99.50
58554;DHT22;48119;53.218;6.576;2023-06-10T06:57:15;19.00;99.40
58554;DHT22;48119;53.218;6.576;2023-06-10T06:59:41;19.00;99.30
58554;DHT22;48119;53.218;6.576;2023-06-10T07:02:07;19.00;99.20
58554;DHT22;48119;53.218;6.576;2023-06-10T07:04:35;19.00;99.20
58554;DHT22;48119;53.218;6.576;2023-06-10T07:07:08;19.10;99.10
58554;DHT22;48119;53.218;6.576;2023-06-10T07:10:04;19.10;99.00
58554;DHT22;48119;53.218;6.576;2023-06-10T07:12:30;19.10;98.80
58554;DHT22;48119;53.218;6.576;2023-06-10T07:14:56;19.10;98.60
58554;DHT22;48119;53.218;6.576;2023-06-10T07:17:22;19.10;98.50
58554;DHT22;48119;53.218;6.576;2023-06-10T07:19:49;19.10;98.40
58554;DHT22;48119;53.218;6.576;2023-06-10T07:22:17;19.20;98.20
58554;DHT22;48119;53.218;6.576;2023-06-10T07:24:42;19.20;98.10
58554;DHT22;48119;53.218;6.576;2023-06-10T07:27:09;19.20;98.10
58554;DHT22;48119;53.218;6.576;2023-06-10T07:29:35;19.20;98.10
58554;DHT22;48119;53.218;6.576;2023-06-10T07:32:04;19.20;98.10
58554;DHT22;48119;53.218;6.576;2023-06-10T07:34:29;19.30;98.00
58554;DHT22;48119;53.218;6.576;2023-06-10T07:36:55;19.30;97.90
58554;DHT22;48119;53.218;6.576;2023-06-10T07:39:22;19.30;97.90
58554;DHT22;48119;53.218;6.576;2023-06-10T07:41:55;19.30;97.90
58554;DHT22;48119;53.218;6.576;2023-06-10T07:44:23;19.30;98.00
58554;DHT22;48119;53.218;6.576;2023-06-10T07:46:49;19.40;98.20
58554;DHT22;48119;53.218;6.576;2023-06-10T07:49:15;19.40;98.20
58554;DHT22;48119;53.218;6.576;2023-06-10T07:51:41;19.40;98.20
58554;DHT22;48119;53.218;6.576;2023-06-10T07:54:07;19.40;98.20
58554;DHT22;48119;53.218;6.576;2023-06-10T07:56:33;19.50;98.20
58554;DHT22;48119;53.218;6.576;2023-06-10T07:58:59;19.50;98.10
58554;DHT22;48119;53.218;6.576;2023-06-10T08:01:25;19.50;98.10
58554;DHT22;48119;53.218;6.576;2023-06-10T08:03:52;19.50;97.90
58554;DHT22;48119;53.218;6.576;2023-06-10T08:06:17;19.60;97.90
58554;DHT22;48119;53.218;6.576;2023-06-10T08:08:46;19.60;97.90
58554;DHT22;48119;53.218;6.576;2023-06-10T08:11:12;19.60;97.90
58554;DHT22;48119;53.218;6.576;2023-06-10T08:13:39;19.70;97.80
58554;DHT22;48119;53.218;6.576;2023-06-10T08:16:06;19.70;97.90
58554;DHT22;48119;53.218;6.576;2023-06-10T08:18:38;19.70;97.90
58554;DHT22;48119;53.218;6.576;2023-06-10T08:21:06;19.80;97.80
58554;DHT22;48119;53.218;6.576;2023-06-10T08:23:32;19.80;97.70
58554;DHT22;48119;53.218;6.576;2023-06-10T08:25:57;19.80;97.70
58554;DHT22;48119;53.218;6.576;2023-06-10T08:28:26;19.80;97.90
58554;DHT22;48119;53.218;6.576;2023-06-10T08:30:52;19.90;97.60
58554;DHT22;48119;53.218;6.576;2023-06-10T08:33:18;19.90;97.60
58554;DHT22;48119;53.218;6.576;2023-06-10T08:35:44;20.00;97.50
58554;DHT22;48119;53.218;6.576;2023-06-10T08:38:11;20.00;97.30
58554;DHT22;48119;53.218;6.576;2023-06-10T08:40:37;20.00;97.40
58554;DHT22;48119;53.218;6.576;2023-06-10T08:46:00;20.10;97.50
58554;DHT22;48119;53.218;6.576;2023-06-10T08:48:29;20.20;97.50
58554;DHT22;48119;53.218;6.576;2023-06-10T08:50:58;20.30;97.50
58554;DHT22;48119;53.218;6.576;2023-06-10T08:53:26;20.30;97.40
58554;DHT22;48119;53.218;6.576;2023-06-10T08:55:53;20.30;97.30
58554;DHT22;48119;53.218;6.576;2023-06-10T08:58:20;20.30;97.20
58554;DHT22;48119;53.218;6.576;2023-06-10T09:00:48;20.40;97.10
58554;DHT22;48119;53.218;6.576;2023-06-10T09:03:14;20.40;96.90
58554;DHT22;48119;53.218;6.576;2023-06-10T09:05:40;20.40;96.90
58554;DHT22;48119;53.218;6.576;2023-06-10T09:08:07;20.50;97.00
58554;DHT22;48119;53.218;6.576;2023-06-10T09:10:34;20.50;96.90
58554;DHT22;48119;53.218;6.576;2023-06-10T09:13:00;20.60;96.80
58554;DHT22;48119;53.218;6.576;2023-06-10T09:15:26;20.60;96.90
58554;DHT22;48119;53.218;6.576;2023-06-10T09:17:53;20.60;96.90
58554;DHT22;48119;53.218;6.576;2023-06-10T09:20:19;20.60;96.90
58554;DHT22;48119;53.218;6.576;2023-06-10T09:22:45;20.70;97.00
58554;DHT22;48119;53.218;6.576;2023-06-10T09:25:37;20.80;97.00
58554;DHT22;48119;53.218;6.576;2023-06-10T09:28:04;20.80;96.90
58554;DHT22;48119;53.218;6.576;2023-06-10T09:30:34;20.80;96.70
58554;DHT22;48119;53.218;6.576;2023-06-10T09:33:13;20.90;96.60
58554;DHT22;48119;53.218;6.576;2023-06-10T09:35:48;21.00;96.70
58554;DHT22;48119;53.218;6.576;2023-06-10T09:38:20;21.00;96.30
58554;DHT22;48119;53.218;6.576;2023-06-10T09:40:53;21.10;96.10
58554;DHT22;48119;53.218;6.576;2023-06-10T09:43:22;21.10;96.00
58554;DHT22;48119;53.218;6.576;2023-06-10T09:45:49;21.20;95.70
58554;DHT22;48119;53.218;6.576;2023-06-10T09:48:15;21.20;95.70
58554;DHT22;48119;53.218;6.576;2023-06-10T09:50:42;21.20;95.70
58554;DHT22;48119;53.218;6.576;2023-06-10T09:53:10;21.30;95.60
58554;DHT22;48119;53.218;6.576;2023-06-10T09:55:38;21.30;95.50
58554;DHT22;48119;53.218;6.576;2023-06-10T09:58:07;21.30;95.40
58554;DHT22;48119;53.218;6.576;2023-06-10T10:00:34;21.40;95.30
58554;DHT22;48119;53.218;6.576;2023-06-10T10:03:00;21.40;95.40
58554;DHT22;48119;53.218;6.576;2023-06-10T10:05:27;21.50;95.50
58554;DHT22;48119;53.218;6.576;2023-06-10T10:07:53;21.50;95.40
58554;DHT22;48119;53.218;6.576;2023-06-10T10:10:20;21.50;95.20
58554;DHT22;48119;53.218;6.576;2023-06-10T10:12:48;21.60;95.20
58554;DHT22;48119;53.218;6.576;2023-06-10T10:15:16;21.60;95.20
58554;DHT22;48119;53.218;6.576;2023-06-10T10:18:13;21.60;95.10
58554;DHT22;48119;53.218;6.576;2023-06-10T10:20:47;21.70;95.00
58554;DHT22;48119;53.218;6.576;2023-06-10T10:26:47;21.80;94.80
58554;DHT22;48119;53.218;6.576;2023-06-10T10:29:24;21.80;94.70
58554;DHT22;48119;53.218;6.576;2023-06-10T10:31:56;21.90;94.50
58554;DHT22;48119;53.218;6.576;2023-06-10T10:34:34;21.90;94.40
58554;DHT22;48119;53.218;6.576;2023-06-10T10:37:01;22.00;94.30
58554;DHT22;48119;53.218;6.576;2023-06-10T10:39:27;22.00;93.90
58554;DHT22;48119;53.218;6.576;2023-06-10T10:41:54;22.10;93.90
58554;DHT22;48119;53.218;6.576;2023-06-10T10:44:21;22.10;94.10
58554;DHT22;48119;53.218;6.576;2023-06-10T10:46:50;22.20;93.70
58554;DHT22;48119;53.218;6.576;2023-06-10T10:49:17;22.20;93.40
58554;DHT22;48119;53.218;6.576;2023-06-10T10:52:00;22.20;93.10
58554;DHT22;48119;53.218;6.576;2023-06-10T10:54:36;22.30;93.30
58554;DHT22;48119;53.218;6.576;2023-06-10T11:02:18;22.40;93.40
58554;DHT22;48119;53.218;6.576;2023-06-10T11:04:53;22.50;93.20
58554;DHT22;48119;53.218;6.576;2023-06-10T11:07:26;22.50;93.10
58554;DHT22;48119;53.218;6.576;2023-06-10T11:12:52;22.60;93.10
58554;DHT22;48119;53.218;6.576;2023-06-10T11:15:26;22.60;93.00
58554;DHT22;48119;53.218;6.576;2023-06-10T11:18:08;22.60;92.50
58554;DHT22;48119;53.218;6.576;2023-06-10T11:20:51;22.60;92.20
58554;DHT22;48119;53.218;6.576;2023-06-10T11:26:18;22.70;92.30
58554;DHT22;48119;53.218;6.576;2023-06-10T11:31:21;22.80;91.80
58554;DHT22;48119;53.218;6.576;2023-06-10T11:33:48;22.80;91.60
58554;DHT22;48119;53.218;6.576;2023-06-10T11:36:17;22.90;91.70
58554;DHT22;48119;53.218;6.576;2023-06-10T11:38:43;22.90;91.40
58554;DHT22;48119;53.218;6.576;2023-06-10T11:41:11;22.90;91.00
58554;DHT22;48119;53.218;6.576;2023-06-10T11:43:47;23.00;90.90
58554;DHT22;48119;53.218;6.576;2023-06-10T11:46:14;23.00;90.60
58554;DHT22;48119;53.218;6.576;2023-06-10T11:48:48;23.10;90.10
58554;DHT22;48119;53.218;6.576;2023-06-10T11:51:14;23.10;89.70
58554;DHT22;48119;53.218;6.576;2023-06-10T11:53:39;23.20;89.10
58554;DHT22;48119;53.218;6.576;2023-06-10T11:56:05;23.20;89.20
58554;DHT22;48119;53.218;6.576;2023-06-10T11:58:31;23.20;90.10
58554;DHT22;48119;53.218;6.576;2023-06-10T12:00:56;23.30;90.80
58554;DHT22;48119;53.218;6.576;2023-06-10T12:03:24;23.30;91.40
58554;DHT22;48119;53.218;6.576;2023-06-10T12:06:02;23.30;91.90
58554;DHT22;48119;53.218;6.576;2023-06-10T12:08:28;23.40;92.10
58554;DHT22;48119;53.218;6.576;2023-06-10T12:10:56;23.50;91.20
58554;DHT22;48119;53.218;6.576;2023-06-10T12:13:22;23.50;90.70
58554;DHT22;48119;53.218;6.576;2023-06-10T12:15:49;23.50;90.80
58554;DHT22;48119;53.218;6.576;2023-06-10T12:18:20;23.50;91.00
58554;DHT22;48119;53.218;6.576;2023-06-10T12:20:46;23.50;91.10
58554;DHT22;48119;53.218;6.576;2023-06-10T12:23:13;23.50;91.00
58554;DHT22;48119;53.218;6.576;2023-06-10T12:25:39;23.50;90.80
58554;DHT22;48119;53.218;6.576;2023-06-10T12:28:05;23.50;90.80
58554;DHT22;48119;53.218;6.576;2023-06-10T12:30:34;23.50;91.00
58554;DHT22;48119;53.218;6.576;2023-06-10T12:33:00;23.60;91.10
58554;DHT22;48119;53.218;6.576;2023-06-10T12:35:28;23.60;91.00
58554;DHT22;48119;53.218;6.576;2023-06-10T12:38:01;23.60;91.00
58554;DHT22;48119;53.218;6.576;2023-06-10T12:40:32;23.60;91.00
58554;DHT22;48119;53.218;6.576;2023-06-10T12:42:58;23.60;91.10
58554;DHT22;48119;53.218;6.576;2023-06-10T12:45:28;23.70;91.30
58554;DHT22;48119;53.218;6.576;2023-06-10T12:48:05;23.70;91.40
58554;DHT22;48119;53.218;6.576;2023-06-10T12:50:35;23.70;91.50
58554;DHT22;48119;53.218;6.576;2023-06-10T12:53:03;23.70;91.50
58554;DHT22;48119;53.218;6.576;2023-06-10T12:55:29;23.70;91.60
58554;DHT22;48119;53.218;6.576;2023-06-10T12:57:54;23.70;91.60
58554;DHT22;48119;53.218;6.576;2023-06-10T13:00:22;23.80;91.50
58554;DHT22;48119;53.218;6.576;2023-06-10T13:02:52;23.70;91.40
58554;DHT22;48119;53.218;6.576;2023-06-10T13:05:18;23.80;91.70
58554;DHT22;48119;53.218;6.576;2023-06-10T13:07:45;23.80;91.90
58554;DHT22;48119;53.218;6.576;2023-06-10T13:10:15;23.80;92.10
58554;DHT22;48119;53.218;6.576;2023-06-10T13:12:42;23.80;92.00
58554;DHT22;48119;53.218;6.576;2023-06-10T13:15:09;23.80;92.10
58554;DHT22;48119;53.218;6.576;2023-06-10T13:17:35;23.80;92.10
58554;DHT22;48119;53.218;6.576;2023-06-10T13:20:04;23.80;92.00
58554;DHT22;48119;53.218;6.576;2023-06-10T13:22:31;23.80;91.60
58554;DHT22;48119;53.218;6.576;2023-06-10T13:25:07;23.80;91.40
58554;DHT22;48119;53.218;6.576;2023-06-10T13:27:34;23.90;91.30
58554;DHT22;48119;53.218;6.576;2023-06-10T13:30:00;23.90;91.20
58554;DHT22;48119;53.218;6.576;2023-06-10T13:32:26;23.90;91.40
58554;DHT22;48119;53.218;6.576;2023-06-10T13:34:52;23.90;91.40
58554;DHT22;48119;53.218;6.576;2023-06-10T13:37:22;23.90;91.20
58554;DHT22;48119;53.218;6.576;2023-06-10T13:39:48;23.90;91.10
58554;DHT22;48119;53.218;6.576;2023-06-10T13:42:22;24.00;91.10
58554;DHT22;48119;53.218;6.576;2023-06-10T13:44:48;24.00;91.00
58554;DHT22;48119;53.218;6.576;2023-06-10T13:47:15;24.00;90.80
58554;DHT22;48119;53.218;6.576;2023-06-10T13:49:44;24.00;90.20
58554;DHT22;48119;53.218;6.576;2023-06-10T13:52:10;24.00;89.30
58554;DHT22;48119;53.218;6.576;2023-06-10T13:54:35;24.00;88.00
58554;DHT22;48119;53.218;6.576;2023-06-10T13:57:02;24.00;87.60
58554;DHT22;48119;53.218;6.576;2023-06-10T13:59:28;24.00;87.70
58554;DHT22;48119;53.218;6.576;2023-06-10T14:01:53;24.00;88.10
58554;DHT22;48119;53.218;6.576;2023-06-10T14:04:19;24.00;88.20
58554;DHT22;48119;53.218;6.576;2023-06-10T14:06:45;24.00;88.10
58554;DHT22;48119;53.218;6.576;2023-06-10T14:09:13;24.00;87.80
58554;DHT22;48119;53.218;6.576;2023-06-10T14:11:38;24.00;87.50
58554;DHT22;48119;53.218;6.576;2023-06-10T14:14:04;24.10;87.30
58554;DHT22;48119;53.218;6.576;2023-06-10T14:16:30;24.00;87.40
58554;DHT22;48119;53.218;6.576;2023-06-10T14:18:55;24.10;87.30
58554;DHT22;48119;53.218;6.576;2023-06-10T14:21:21;24.10;87.00
58554;DHT22;48119;53.218;6.576;2023-06-10T14:23:53;24.10;86.70
58554;DHT22;48119;53.218;6.576;2023-06-10T14:26:19;24.10;86.60
58554;DHT22;48119;53.218;6.576;2023-06-10T14:28:48;24.10;86.00
58554;DHT22;48119;53.218;6.576;2023-06-10T14:31:15;24.10;85.10
58554;DHT22;48119;53.218;6.576;2023-06-10T14:33:42;24.10;85.00
58554;DHT22;48119;53.218;6.576;2023-06-10T14:36:10;24.10;83.60
58554;DHT22;48119;53.218;6.576;2023-06-10T14:38:36;24.10;82.50
58554;DHT22;48119;53.218;6.576;2023-06-10T14:41:02;24.00;82.30
58554;DHT22;48119;53.218;6.576;2023-06-10T14:43:28;24.10;83.10
58554;DHT22;48119;53.218;6.576;2023-06-10T14:45:53;24.10;83.30
58554;DHT22;48119;53.218;6.576;2023-06-10T14:48:21;24.10;83.00
58554;DHT22;48119;53.218;6.576;2023-06-10T14:50:47;24.10;82.80
58554;DHT22;48119;53.218;6.576;2023-06-10T14:53:19;24.10;82.80
58554;DHT22;48119;53.218;6.576;2023-06-10T14:55:45;24.10;82.70
58554;DHT22;48119;53.218;6.576;2023-06-10T14:58:11;24.20;83.40
58554;DHT22;48119;53.218;6.576;2023-06-10T15:00:37;24.20;83.50
58554;DHT22;48119;53.218;6.576;2023-06-10T15:03:02;24.20;83.20
58554;DHT22;48119;53.218;6.576;2023-06-10T15:05:28;24.20;84.90
58554;DHT22;48119;53.218;6.576;2023-06-10T15:07:54;24.20;84.30
58554;DHT22;48119;53.218;6.576;2023-06-10T15:10:20;24.20;84.20
58554;DHT22;48119;53.218;6.576;2023-06-10T15:12:47;24.30;83.90
58554;DHT22;48119;53.218;6.576;2023-06-10T15:15:13;24.30;83.70
58554;DHT22;48119;53.218;6.576;2023-06-10T15:17:39;24.30;83.50
58554;DHT22;48119;53.218;6.576;2023-06-10T15:20:05;24.30;83.60
58554;DHT22;48119;53.218;6.576;2023-06-10T15:22:31;24.30;84.00
58554;DHT22;48119;53.218;6.576;2023-06-10T15:24:57;24.30;83.90
58554;DHT22;48119;53.218;6.576;2023-06-10T15:27:23;24.30;83.20
58554;DHT22;48119;53.218;6.576;2023-06-10T15:29:49;24.30;82.60
58554;DHT22;48119;53.218;6.576;2023-06-10T15:32:14;24.30;82.60
58554;DHT22;48119;53.218;6.576;2023-06-10T15:34:40;24.40;82.40
58554;DHT22;48119;53.218;6.576;2023-06-10T15:37:06;24.40;82.00
58554;DHT22;48119;53.218;6.576;2023-06-10T15:39:32;24.40;82.10
58554;DHT22;48119;53.218;6.576;2023-06-10T15:41:58;24.30;82.30
58554;DHT22;48119;53.218;6.576;2023-06-10T15:44:24;24.30;82.40
58554;DHT22;48119;53.218;6.576;2023-06-10T15:46:50;24.30;81.80
58554;DHT22;48119;53.218;6.576;2023-06-10T15:49:16;24.30;81.10
58554;DHT22;48119;53.218;6.576;2023-06-10T15:51:41;24.30;80.40
58554;DHT22;48119;53.218;6.576;2023-06-10T15:54:07;24.30;80.40
58554;DHT22;48119;53.218;6.576;2023-06-10T15:56:33;24.30;80.70